Time;durP1;ratioP1;P1;durP2;ratioP2;P2;SDS_P1;SDS_P2;PMS_P1;PMS_P2;Temp;Humidity;BMP_temperature;BMP_pressure;BME280_temperature;BME280_humidity;BME280_pressure;Samples;Min_cycle;Max_cycle;Signal;HPM_P1;HPM_P2
2022/07/21 00:01:29;;;;;;;3.65;2.40;;;;;;;16.12;82.60;93468.56;5130257;27;20049;-77
2022/07/21 00:03:55;;;;;;;3.53;2.10;;;;;;;16.10;82.63;93473.97;5130423;28;20092;-77
2022/07/21 00:06:22;;;;;;;3.97;2.55;;;;;;;16.01;83.12;93465.00;5126708;28;20043;-77
2022/07/21 00:08:49;;;;;;;3.00;2.00;;;;;;;15.97;83.03;93471.72;5117780;28;20051;-77
2022/07/21 00:11:16;;;;;;;3.15;2.28;;;;;;;15.93;83.63;93473.19;5120560;28;20054;-77
2022/07/21 00:13:43;;;;;;;2.80;1.90;;;;;;;15.71;83.76;93448.75;5119072;28;20063;-77
2022/07/21 00:16:11;;;;;;;3.30;2.45;;;;;;;15.81;83.85;93471.44;5119063;28;20054;-77
2022/07/21 00:18:38;;;;;;;3.50;2.05;;;;;;;15.76;84.12;93473.94;5115591;28;20507;-77
2022/07/21 00:21:06;;;;;;;3.03;1.98;;;;;;;15.72;84.05;93465.06;5120007;28;20051;-77
2022/07/21 00:23:33;;;;;;;4.10;2.20;;;;;;;15.68;84.49;93471.72;5120736;28;20050;-77
2022/07/21 00:25:59;;;;;;;4.75;2.28;;;;;;;15.66;84.91;93472.00;5130143;28;20133;-77
2022/07/21 00:28:26;;;;;;;4.55;2.25;;;;;;;15.50;84.99;93448.44;5122196;28;20499;-77
2022/07/21 00:30:53;;;;;;;3.47;2.05;;;;;;;15.52;85.62;93465.53;5116899;28;20054;-77
2022/07/21 00:33:21;;;;;;;3.60;2.40;;;;;;;15.40;86.42;93453.44;5120487;28;20047;-77
2022/07/21 00:35:48;;;;;;;5.13;2.33;;;;;;;15.49;86.42;93459.81;5120433;27;20051;-77
2022/07/21 00:38:15;;;;;;;3.67;2.88;;;;;;;15.44;86.54;93469.28;5122606;27;20494;-77
2022/07/21 00:40:42;;;;;;;4.15;2.42;;;;;;;15.39;86.41;93459.63;5124423;27;20050;-77
2022/07/21 00:43:09;;;;;;;3.22;2.33;;;;;;;15.34;86.73;93462.94;5126383;27;20048;-77
2022/07/21 00:45:36;;;;;;;3.55;1.77;;;;;;;15.32;87.11;93459.00;5133118;27;20043;-77
2022/07/21 09:47:38;;;;;;;6.93;1.33;;;;;;;32.62;29.18;93323.09;5131130;27;20138;-80
2022/07/21 09:50:06;;;;;;;3.95;1.80;;;;;;;32.54;31.30;93326.75;5132572;27;20051;-80
2022/07/21 09:52:34;;;;;;;2.47;1.60;;;;;;;32.63;29.37;93310.59;5132404;27;20111;-81
2022/07/21 09:55:04;;;;;;;4.00;2.08;;;;;;;32.59;30.26;93323.81;5132216;27;20046;-80
2022/07/21 09:57:32;;;;;;;2.97;1.83;;;;;;;31.64;30.46;93285.50;5132294;27;20047;-80
2022/07/21 09:59:59;;;;;;;3.78;1.65;;;;;;;32.22;30.62;93330.19;5132397;27;20047;-78
2022/07/21 10:02:29;;;;;;;5.47;2.13;;;;;;;32.93;30.49;93326.00;5132064;27;20107;-78
2022/07/21 10:04:59;;;;;;;5.57;1.60;;;;;;;32.94;29.50;93327.56;5132305;27;20043;-77
2022/07/21 10:07:28;;;;;;;2.67;1.75;;;;;;;33.40;28.85;93326.94;5132094;27;20117;-77
2022/07/21 10:09:55;;;;;;;3.88;1.77;;;;;;;32.87;28.20;93311.44;5131330;27;20460;-78
2022/07/21 10:12:23;;;;;;;2.70;1.20;;;;;;;33.13;28.24;93326.06;5132361;27;20108;-78
2022/07/21 10:14:51;;;;;;;3.10;1.70;;;;;;;32.89;28.43;93325.94;5131985;27;20051;-78
2022/07/21 10:17:19;;;;;;;2.17;1.45;;;;;;;33.21;27.71;93319.00;5132052;27;20054;-79
2022/07/21 10:19:57;;;;;;;3.10;1.52;;;;;;;32.26;28.72;93327.63;5132147;27;20062;-80
2022/07/21 10:22:37;;;;;;;2.85;1.40;;;;;;;32.82;29.06;93309.06;5125389;27;20051;-79
2022/07/21 10:25:04;;;;;;;3.05;1.70;;;;;;;31.96;27.40;93293.53;5130162;27;20047;-79
2022/07/21 10:27:31;;;;;;;3.30;1.80;;;;;;;32.65;29.03;93309.13;5131299;27;20096;-80
2022/07/21 10:30:00;;;;;;;3.50;1.63;;;;;;;31.66;29.42;93313.28;5131869;27;20039;-80
2022/07/21 10:32:30;;;;;;;2.60;1.50;;;;;;;31.08;29.89;93303.81;5131915;27;20111;-79
2022/07/21 10:34:58;;;;;;;4.13;1.67;;;;;;;31.18;30.14;93303.31;5131300;27;20448;-78
2022/07/21 10:37:46;;;;;;;4.32;1.60;;;;;;;30.44;29.79;93300.88;5131280;27;20039;-76
2022/07/21 10:40:36;;;;;;;4.55;1.70;;;;;;;30.59;30.39;93299.41;5118856;27;20082;-78
2022/07/21 10:43:36;;;;;;;3.67;1.80;;;;;;;30.42;29.39;93305.72;5131276;27;20051;-78
2022/07/21 10:46:03;;;;;;;3.50;2.17;;;;;;;30.45;30.19;93289.91;5127188;27;20064;-78
2022/07/21 10:48:49;;;;;;;3.40;1.83;;;;;;;31.28;29.38;93283.50;5131448;27;20043;-77
2022/07/21 10:51:17;;;;;;;3.45;2.00;;;;;;;31.73;28.65;93294.09;5118346;27;20042;-77
2022/07/21 10:53:46;;;;;;;3.28;1.77;;;;;;;31.69;28.01;93283.38;5131259;27;20043;-77
2022/07/21 10:56:27;;;;;;;6.13;2.15;;;;;;;32.41;28.79;93286.22;5131225;27;20039;-78
2022/07/21 10:58:54;;;;;;;4.60;2.35;;;;;;;33.01;28.59;93285.16;5111962;27;20041;-77
2022/07/21 11:01:24;;;;;;;3.08;1.77;;;;;;;33.30;27.66;93287.56;5129593;27;20055;-77
2022/07/21 11:04:10;;;;;;;6.82;1.92;;;;;;;32.92;27.31;93276.59;5130945;27;20061;-78
2022/07/21 11:06:38;;;;;;;4.10;2.13;;;;;;;32.42;25.82;93284.31;5130777;27;20058;-78
2022/07/21 11:09:12;;;;;;;4.50;2.53;;;;;;;31.94;27.35;93269.94;5130296;27;20084;-77
2022/07/21 11:11:57;;;;;;;4.00;2.80;;;;;;;32.61;28.04;93280.91;5130727;27;20088;-77
2022/07/21 11:14:36;;;;;;;6.47;2.92;;;;;;;32.94;27.78;93266.34;5130336;27;20841;-76
2022/07/21 11:17:03;;;;;;;4.53;2.80;;;;;;;33.36;27.64;93272.09;5130493;27;20792;-77
2022/07/21 11:19:33;;;;;;;4.78;3.22;;;;;;;33.02;26.84;93272.63;5130682;27;20042;-77
2022/07/21 11:22:02;;;;;;;5.78;2.88;;;;;;;32.81;26.32;93275.63;5130441;27;20138;-77
2022/07/21 11:24:30;;;;;;;6.93;2.70;;;;;;;31.92;26.71;93268.78;5130592;27;20539;-77
2022/07/21 11:26:58;;;;;;;5.20;2.90;;;;;;;31.84;28.30;93263.25;5130630;27;20039;-77
2022/07/21 11:29:26;;;;;;;5.88;2.95;;;;;;;31.25;28.22;93273.56;5130155;27;20039;-77
2022/07/21 11:31:53;;;;;;;6.95;3.40;;;;;;;31.91;28.34;93267.22;5130326;27;20503;-76
2022/07/21 11:34:20;;;;;;;7.57;2.78;;;;;;;32.39;28.07;93259.16;5130176;27;20445;-77
2022/07/21 11:36:48;;;;;;;5.65;2.78;;;;;;;32.65;26.79;93265.81;5130335;27;20057;-77
2022/07/21 11:39:18;;;;;;;4.13;3.00;;;;;;;32.55;26.63;93261.03;5130164;27;20095;-77
2022/07/21 11:41:47;;;;;;;3.67;2.40;;;;;;;32.71;27.42;93250.34;5124381;27;20472;-77
2022/07/21 11:44:31;;;;;;;4.53;2.80;;;;;;;33.02;26.55;93251.34;5123810;27;20074;-78
2022/07/21 11:47:00;;;;;;;5.47;2.50;;;;;;;33.41;26.94;93253.16;5127356;27;20055;-77
2022/07/21 11:49:31;;;;;;;6.05;2.75;;;;;;;34.08;26.32;93251.22;5129234;27;20174;-76
2022/07/21 11:52:00;;;;;;;5.97;2.65;;;;;;;34.36;26.20;93250.06;5127499;27;20425;-79
2022/07/21 11:54:33;;;;;;;3.65;2.50;;;;;;;33.44;26.19;93247.91;5128239;27;20047;-78
2022/07/21 11:57:03;;;;;;;5.10;2.80;;;;;;;33.81;26.07;93235.19;5127981;27;20495;-78
2022/07/21 11:59:30;;;;;;;4.43;2.80;;;;;;;33.48;26.81;93241.84;5129152;27;20043;-77
2022/07/21 12:02:00;;;;;;;5.72;2.78;;;;;;;33.62;27.40;93247.47;5125960;27;20103;-77
2022/07/21 12:04:36;;;;;;;5.25;2.45;;;;;;;33.90;25.89;93250.91;5128818;27;20043;-78
2022/07/21 12:07:06;;;;;;;5.18;2.70;;;;;;;34.04;26.44;93237.81;5128325;27;20051;-78
2022/07/21 12:09:33;;;;;;;4.20;2.13;;;;;;;33.11;28.04;93243.13;5131052;28;20054;-78
2022/07/21 12:12:02;;;;;;;2.70;1.95;;;;;;;33.42;27.69;93249.38;5129968;28;20618;-77
2022/07/21 12:14:46;;;;;;;4.38;2.33;;;;;;;33.99;26.68;93240.78;5129845;28;20519;-77
2022/07/21 12:17:16;;;;;;;4.15;2.22;;;;;;;34.32;26.80;93231.38;5119916;28;20050;-77
2022/07/21 12:19:44;;;;;;;4.82;2.03;;;;;;;34.21;26.89;93238.44;5129745;28;20154;-78
2022/07/21 12:22:10;;;;;;;4.47;1.63;;;;;;;32.85;26.93;93220.59;5130217;28;20047;-78
2022/07/21 12:25:05;;;;;;;3.85;1.70;;;;;;;31.99;29.61;93221.88;5129771;28;20050;-78
2022/07/21 12:27:36;;;;;;;5.18;1.90;;;;;;;32.16;29.08;93224.50;5070978;28;20040;-77
2022/07/21 12:30:04;;;;;;;3.80;2.53;;;;;;;32.64;28.64;93225.13;5130020;28;20047;-77
2022/07/21 12:32:43;;;;;;;5.03;2.25;;;;;;;33.20;28.69;93227.72;5121401;27;20054;-78
2022/07/21 12:35:25;;;;;;;5.10;2.00;;;;;;;33.06;27.49;93222.91;5133807;27;20051;-78
2022/07/21 12:37:54;;;;;;;3.10;1.85;;;;;;;33.18;28.13;93216.66;5133806;27;20054;-78
2022/07/21 12:40:21;;;;;;;3.92;2.00;;;;;;;33.53;28.20;93217.63;5133724;27;20046;-77
2022/07/21 12:42:50;;;;;;;4.20;1.95;;;;;;;33.30;27.50;93218.38;5134012;27;20399;-77
2022/07/21 12:45:19;;;;;;;3.45;2.05;;;;;;;32.52;29.00;93217.31;5133694;27;20509;-77
2022/07/21 12:48:07;;;;;;;2.75;1.90;;;;;;;32.11;28.67;93206.94;5133769;27;20107;-76
2022/07/21 12:50:34;;;;;;;5.53;1.95;;;;;;;31.38;29.68;93212.47;5133774;27;20047;-77
2022/07/21 12:53:02;;;;;;;3.72;1.90;;;;;;;31.23;30.41;93211.34;5133720;27;20054;-76
2022/07/21 12:55:29;;;;;;;3.35;2.10;;;;;;;31.10;30.44;93213.28;5133657;27;20066;-76
2022/07/21 12:57:57;;;;;;;4.15;2.05;;;;;;;30.80;30.25;93203.81;5116752;27;20384;-77
2022/07/21 13:00:24;;;;;;;3.47;1.98;;;;;;;31.07;29.68;93212.84;5128274;27;20042;-76
2022/07/21 13:02:53;;;;;;;6.63;2.00;;;;;;;31.17;29.41;93211.59;5133769;27;20434;-77
2022/07/21 13:05:21;;;;;;;2.75;1.83;;;;;;;31.38;28.90;93207.19;5133157;27;20134;-77
2022/07/21 13:07:48;;;;;;;6.90;1.80;;;;;;;31.99;30.47;93205.94;5133235;27;20047;-77
2022/07/21 13:10:15;;;;;;;9.65;2.00;;;;;;;31.90;29.93;93200.06;5133292;27;20407;-78
2022/07/21 13:12:42;;;;;;;3.40;1.73;;;;;;;31.80;29.51;93198.66;5118996;27;20522;-77
2022/07/21 13:15:11;;;;;;;3.60;1.80;;;;;;;31.80;30.92;93200.56;5133273;27;20058;-77
2022/07/21 13:17:38;;;;;;;4.97;1.70;;;;;;;31.63;30.21;93189.19;5133129;27;20043;-77
2022/07/21 13:20:06;;;;;;;4.35;2.05;;;;;;;31.44;30.36;93193.31;5133089;27;20057;-77
2022/07/21 13:22:33;;;;;;;5.13;1.80;;;;;;;31.89;30.10;93192.44;5132998;27;20047;-78
2022/07/21 13:25:00;;;;;;;4.57;2.10;;;;;;;31.86;30.33;93185.91;5133160;27;20367;-78
2022/07/21 13:27:26;;;;;;;3.47;1.63;;;;;;;31.44;30.65;93185.34;5132522;27;20499;-76
2022/07/21 13:29:53;;;;;;;5.47;2.05;;;;;;;31.79;30.30;93191.06;5133059;27;20039;-77
2022/07/21 13:32:22;;;;;;;3.22;1.73;;;;;;;31.15;30.82;93194.47;5132988;27;20047;-78
2022/07/21 13:34:49;;;;;;;3.47;1.85;;;;;;;31.14;30.74;93187.63;5132842;27;20403;-77
2022/07/21 13:37:16;;;;;;;2.55;1.75;;;;;;;31.28;30.42;93169.41;5132417;27;20047;-77
2022/07/21 13:39:43;;;;;;;6.10;2.08;;;;;;;31.49;30.69;93184.31;5132342;27;20050;-78
2022/07/21 13:42:09;;;;;;;3.47;1.80;;;;;;;31.65;30.76;93188.84;5132753;27;20058;-76
2022/07/21 13:44:37;;;;;;;3.17;1.80;;;;;;;31.63;30.16;93189.19;5131598;27;20043;-77
2022/07/21 13:47:04;;;;;;;3.95;2.08;;;;;;;31.02;30.54;93193.75;5132471;27;20663;-77
2022/07/21 13:49:32;;;;;;;2.78;1.75;;;;;;;31.45;30.42;93178.91;5132454;27;20039;-77
2022/07/21 13:51:59;;;;;;;2.63;1.73;;;;;;;31.72;30.42;93186.34;5132583;27;20073;-76
2022/07/21 13:54:25;;;;;;;12.60;2.47;;;;;;;31.43;30.22;93196.31;5131889;27;20043;-78
2022/07/21 13:56:52;;;;;;;4.35;1.75;;;;;;;31.63;30.79;93193.72;5132280;27;20051;-76
2022/07/21 13:59:19;;;;;;;2.90;1.88;;;;;;;31.80;30.38;93201.31;5131353;27;20801;-76
2022/07/21 14:01:46;;;;;;;3.92;1.88;;;;;;;32.16;29.45;93187.31;5132789;27;20410;-76
2022/07/21 14:04:13;;;;;;;3.22;1.90;;;;;;;32.04;29.13;93188.19;5132851;27;20047;-77
2022/07/21 14:06:46;;;;;;;4.32;1.83;;;;;;;31.66;30.55;93191.13;5129293;27;20048;-77
2022/07/21 14:09:13;;;;;;;3.22;1.90;;;;;;;31.42;30.16;93186.81;5120771;27;20112;-77
2022/07/21 14:11:40;;;;;;;4.32;2.05;;;;;;;32.10;30.18;93179.63;5123165;27;20047;-77
2022/07/21 14:14:07;;;;;;;6.85;2.00;;;;;;;32.50;28.72;93175.09;5120801;27;20050;-77
2022/07/21 14:16:34;;;;;;;3.17;1.70;;;;;;;32.31;29.07;93183.06;5120426;27;20433;-77
2022/07/21 14:19:01;;;;;;;4.60;2.20;;;;;;;31.73;29.52;93180.69;5121402;27;20053;-77
2022/07/21 14:21:28;;;;;;;5.78;1.92;;;;;;;31.55;30.22;93171.53;5122385;27;20050;-78
2022/07/21 14:26:37;;;;;;;3.03;1.60;;;;;;;32.31;30.12;93178.53;5116885;27;20410;-76
2022/07/21 14:29:05;;;;;;;6.43;2.05;;;;;;;32.10;29.89;93166.34;5120881;27;20108;-77
2022/07/21 14:31:31;;;;;;;2.67;1.77;;;;;;;31.35;30.50;93178.66;5128962;27;20050;-76
2022/07/21 14:33:58;;;;;;;3.25;1.83;;;;;;;31.57;29.87;93177.28;5131825;27;20422;-77
2022/07/21 14:36:25;;;;;;;4.13;1.70;;;;;;;31.10;30.76;93176.91;5131540;27;20043;-77
2022/07/21 14:38:52;;;;;;;7.35;4.25;;;;;;;31.27;30.93;93175.81;5131228;27;20054;-76
2022/07/21 14:41:20;;;;;;;6.93;2.33;;;;;;;31.32;30.67;93174.78;5131739;27;20399;-77
2022/07/21 14:43:48;;;;;;;4.18;2.00;;;;;;;31.04;31.00;93176.38;5131225;27;20498;-77
2022/07/21 14:46:15;;;;;;;4.53;2.00;;;;;;;31.24;30.76;93176.47;5131658;27;20061;-77
2022/07/21 14:48:42;;;;;;;3.83;2.25;;;;;;;31.60;30.81;93166.75;5131068;27;20047;-76
2022/07/21 14:51:09;;;;;;;4.38;1.90;;;;;;;31.95;30.49;93154.63;5131181;27;20047;-77
2022/07/21 14:53:36;;;;;;;4.43;1.80;;;;;;;32.30;29.91;93162.91;5131383;27;20115;-77
2022/07/21 14:56:03;;;;;;;4.32;1.80;;;;;;;32.38;29.68;93156.63;5130496;27;20058;-77
2022/07/21 14:58:33;;;;;;;5.28;2.15;;;;;;;32.02;29.79;93167.28;5131305;27;20418;-77
2022/07/21 15:01:00;;;;;;;6.30;2.35;;;;;;;31.86;29.21;93162.03;5131121;27;20091;-78
2022/07/21 15:03:27;;;;;;;3.65;1.80;;;;;;;31.51;30.74;93165.41;5131043;27;20070;-77
2022/07/21 15:05:54;;;;;;;3.58;1.70;;;;;;;31.39;30.04;93156.41;5131082;27;20043;-77
2022/07/21 15:08:21;;;;;;;4.60;2.15;;;;;;;31.40;30.77;93128.75;5131230;27;20047;-78
2022/07/21 15:10:48;;;;;;;3.00;1.95;;;;;;;31.62;30.68;93155.78;5131124;27;20402;-78
2022/07/21 15:13:16;;;;;;;4.68;1.98;;;;;;;31.15;30.02;93152.78;5131172;27;20048;-78
2022/07/21 15:15:47;;;;;;;6.97;1.80;;;;;;;30.90;30.76;93150.28;5130765;27;20047;-77
2022/07/21 15:18:14;;;;;;;5.00;2.20;;;;;;;30.99;30.37;93155.41;5130579;27;20514;-77
2022/07/21 15:20:40;;;;;;;4.85;1.85;;;;;;;31.04;30.52;93155.16;5130940;27;20055;-78
2022/07/21 15:23:07;;;;;;;3.17;1.70;;;;;;;30.99;31.76;93162.59;5130444;27;20047;-78
2022/07/21 15:25:34;;;;;;;3.05;1.70;;;;;;;30.86;31.00;93151.31;5130658;27;20039;-77
2022/07/21 15:28:01;;;;;;;3.67;2.38;;;;;;;30.92;31.26;93153.34;5130603;27;20051;-77
2022/07/21 15:30:28;;;;;;;5.10;2.20;;;;;;;30.86;31.22;93133.50;5127624;27;20487;-77
2022/07/21 15:33:00;;;;;;;4.38;1.90;;;;;;;31.13;31.95;93146.25;5124774;27;20559;-77
2022/07/21 15:35:27;;;;;;;3.47;1.77;;;;;;;30.73;31.73;93151.34;5110843;28;20126;-77
2022/07/21 15:37:54;;;;;;;3.30;1.80;;;;;;;30.70;32.25;93128.19;5113597;27;20441;-78
2022/07/21 15:40:21;;;;;;;5.07;2.00;;;;;;;30.78;32.21;93153.75;5118166;27;20044;-77
2022/07/21 15:42:48;;;;;;;6.35;1.98;;;;;;;30.66;32.40;93145.84;5110198;28;20054;-77
2022/07/21 15:45:15;;;;;;;4.43;1.70;;;;;;;30.63;31.83;93152.59;5131346;27;20077;-77
2022/07/21 15:47:42;;;;;;;4.57;1.88;;;;;;;30.80;31.49;93142.81;5131652;27;20098;-78
2022/07/21 15:50:10;;;;;;;3.33;2.00;;;;;;;30.84;32.38;93156.16;5129025;27;20054;-77
2022/07/21 15:52:37;;;;;;;3.53;1.88;;;;;;;30.74;31.41;93142.31;5124054;27;20048;-78
2022/07/21 15:55:05;;;;;;;4.03;2.40;;;;;;;30.67;32.04;93140.22;5121488;27;20047;-78
2022/07/21 15:57:32;;;;;;;3.72;1.98;;;;;;;30.98;32.12;93150.44;5129820;27;20047;-78
2022/07/21 16:00:00;;;;;;;2.92;1.52;;;;;;;30.96;31.63;93144.72;5129982;27;20557;-77
2022/07/21 16:02:27;;;;;;;6.18;1.95;;;;;;;31.07;32.52;93137.81;5130114;27;20414;-77
2022/07/21 16:04:54;;;;;;;8.05;2.40;;;;;;;30.74;32.28;93144.19;5129908;27;20043;-78
2022/07/21 16:07:22;;;;;;;9.68;2.63;;;;;;;30.64;32.78;93138.22;5129274;27;20429;-78
2022/07/21 16:09:49;;;;;;;6.18;2.15;;;;;;;30.80;32.71;93140.94;5129975;27;20515;-85
2022/07/21 16:12:16;;;;;;;5.75;2.00;;;;;;;30.78;32.81;93134.44;5130205;28;20055;-78
2022/07/21 16:14:43;;;;;;;4.57;2.13;;;;;;;30.70;32.96;93152.03;5130225;28;20054;-77
2022/07/21 16:17:10;;;;;;;4.05;1.98;;;;;;;30.70;33.25;93145.97;5121245;28;20548;-77
2022/07/21 16:19:38;;;;;;;2.85;2.10;;;;;;;30.43;33.50;93143.72;5115283;28;20079;-78
2022/07/21 16:22:05;;;;;;;9.27;2.47;;;;;;;30.40;33.76;93139.88;5119186;28;20103;-77
2022/07/21 16:24:33;;;;;;;3.75;2.10;;;;;;;30.38;33.84;93147.41;5130029;28;20054;-79
2022/07/21 16:27:00;;;;;;;5.22;2.47;;;;;;;30.18;34.26;93146.47;5129836;28;20043;-77
2022/07/21 16:29:27;;;;;;;3.75;1.98;;;;;;;30.06;34.68;93146.47;5112361;28;20052;-78
2022/07/21 16:31:58;;;;;;;3.33;2.08;;;;;;;30.18;34.81;93149.13;5126767;28;20487;-77
2022/07/21 16:34:25;;;;;;;6.10;2.65;;;;;;;30.29;34.82;93144.13;5129854;28;20048;-77
2022/07/21 16:36:51;;;;;;;4.25;2.50;;;;;;;30.18;34.46;93146.47;5129808;28;20054;-77
2022/07/21 16:39:18;;;;;;;5.43;2.08;;;;;;;30.34;34.37;93153.69;5129553;27;20047;-77
2022/07/21 16:41:47;;;;;;;4.05;2.30;;;;;;;30.31;34.99;93149.09;5129647;28;20104;-77
2022/07/21 16:44:15;;;;;;;5.65;2.20;;;;;;;30.30;35.20;93150.94;5127219;28;20559;-78
2022/07/21 16:46:42;;;;;;;4.53;2.10;;;;;;;30.03;34.79;93155.84;5121552;28;20138;-77
2022/07/21 16:49:09;;;;;;;4.32;2.28;;;;;;;29.99;35.41;93142.50;5129787;28;20061;-77
2022/07/21 16:51:35;;;;;;;5.65;2.72;;;;;;;29.99;35.24;93139.84;5129656;28;20298;-78
2022/07/21 16:54:02;;;;;;;5.25;1.90;;;;;;;29.89;35.13;93137.66;5129240;28;20047;-78
2022/07/21 16:56:29;;;;;;;4.88;2.15;;;;;;;29.85;34.96;93145.50;5129670;28;20068;-77
2022/07/21 16:58:57;;;;;;;5.10;2.58;;;;;;;29.85;35.18;93147.41;5129455;28;20096;-77
2022/07/21 17:01:25;;;;;;;5.25;2.53;;;;;;;29.93;34.72;93157.06;5129495;28;20380;-78
2022/07/21 17:03:52;;;;;;;4.00;2.90;;;;;;;29.68;35.78;93146.53;5129177;28;20040;-77
2022/07/21 17:06:19;;;;;;;4.93;2.40;;;;;;;29.78;35.72;93152.47;5129499;28;20039;-77
2022/07/21 17:08:46;;;;;;;4.85;2.33;;;;;;;29.67;36.50;93147.63;5129434;28;20111;-77
2022/07/21 17:11:12;;;;;;;3.97;2.10;;;;;;;29.64;36.66;93147.50;5129527;28;20104;-77
2022/07/21 17:13:39;;;;;;;5.95;2.10;;;;;;;29.68;36.50;93157.13;5129221;28;20100;-77
2022/07/21 17:16:09;;;;;;;5.13;2.38;;;;;;;29.73;36.65;93156.13;5128923;28;20085;-77
2022/07/21 17:18:36;;;;;;;6.60;2.72;;;;;;;29.77;36.57;93151.72;5131259;27;20425;-77
2022/07/21 17:21:05;;;;;;;3.10;2.10;;;;;;;29.72;36.90;93157.22;5132764;27;20046;-78
2022/07/21 17:23:32;;;;;;;10.02;3.40;;;;;;;29.51;37.00;93152.81;5132817;27;20167;-78
2022/07/21 17:25:59;;;;;;;4.50;2.40;;;;;;;29.44;37.20;93145.38;5132310;27;20555;-77
2022/07/21 17:28:25;;;;;;;7.22;3.05;;;;;;;29.33;37.58;93158.28;5118397;27;20078;-76
2022/07/21 17:30:53;;;;;;;7.75;2.78;;;;;;;29.28;38.13;93157.72;5132990;27;20103;-77
2022/07/21 17:33:21;;;;;;;7.28;3.72;;;;;;;29.33;38.16;93152.22;5132634;27;20429;-76
2022/07/21 17:35:47;;;;;;;7.15;2.67;;;;;;;29.40;38.12;93151.69;5129418;27;20088;-77
2022/07/21 17:38:16;;;;;;;8.55;3.22;;;;;;;29.43;38.46;93158.97;5132041;27;20058;-77
2022/07/21 17:40:42;;;;;;;10.27;3.20;;;;;;;29.39;38.35;93160.72;5132324;27;20051;-76
2022/07/21 17:43:10;;;;;;;6.55;2.75;;;;;;;29.33;38.29;93158.28;5132445;27;20039;-76
2022/07/21 17:45:37;;;;;;;8.52;3.20;;;;;;;29.25;38.83;93161.81;5132521;27;20465;-76
2022/07/21 17:48:04;;;;;;;6.90;3.20;;;;;;;28.93;39.08;93153.63;5132319;27;20047;-77
2022/07/21 17:50:32;;;;;;;5.40;2.92;;;;;;;28.47;39.79;93159.59;5132539;27;20051;-77
2022/07/21 17:52:59;;;;;;;14.88;11.23;;;;;;;28.21;40.51;93163.19;5132515;27;20095;-77
2022/07/21 17:55:25;;;;;;;9.35;4.13;;;;;;;27.94;41.21;93164.47;5132189;27;20487;-77
2022/07/21 18:00:36;;;;;;;7.22;2.85;;;;;;;27.60;42.77;93175.66;5132516;27;20054;-77
2022/07/21 18:03:03;;;;;;;9.35;3.47;;;;;;;27.42;44.21;93172.34;5132483;27;20047;-77
2022/07/21 18:05:30;;;;;;;8.48;3.10;;;;;;;27.24;44.57;93170.84;5132108;27;20551;-77
2022/07/21 18:07:58;;;;;;;6.60;2.90;;;;;;;27.12;45.13;93169.63;5132280;27;20051;-76
2022/07/21 18:10:25;;;;;;;6.50;3.03;;;;;;;27.21;44.83;93166.97;5131753;27;20143;-77
2022/07/21 18:12:51;;;;;;;8.07;2.95;;;;;;;27.30;45.79;93174.88;5131796;27;20040;-76
2022/07/21 18:15:18;;;;;;;5.35;2.53;;;;;;;27.23;45.26;93174.56;5131968;27;20506;-76
2022/07/21 18:17:45;;;;;;;8.05;3.40;;;;;;;27.05;44.87;93177.25;5132016;27;20418;-77
2022/07/21 18:20:12;;;;;;;8.55;3.10;;;;;;;26.99;45.61;93160.84;5131915;27;20051;-77
2022/07/21 18:22:39;;;;;;;5.30;2.55;;;;;;;27.12;45.46;93184.69;5126696;27;20084;-77
2022/07/21 18:25:09;;;;;;;8.98;4.03;;;;;;;27.09;45.77;93178.19;5116152;27;20088;-77
2022/07/21 18:27:36;;;;;;;7.03;3.67;;;;;;;27.08;45.76;93190.56;5131726;27;20494;-76
2022/07/21 18:30:03;;;;;;;8.10;4.00;;;;;;;26.84;47.58;93162.06;5131092;27;20043;-76
2022/07/21 18:32:30;;;;;;;7.38;3.78;;;;;;;26.97;47.60;93191.25;5131847;27;20047;-76
2022/07/21 18:34:56;;;;;;;10.48;3.70;;;;;;;26.88;47.55;93197.25;5131457;27;20491;-77
2022/07/21 18:37:23;;;;;;;11.40;3.92;;;;;;;26.84;47.99;93198.97;5131673;27;20055;-76
2022/07/21 18:39:50;;;;;;;6.75;2.95;;;;;;;26.71;48.54;93184.91;5131446;27;20039;-76
2022/07/21 18:42:18;;;;;;;9.48;3.53;;;;;;;26.67;49.13;93207.69;5131828;27;20035;-77
2022/07/21 18:44:45;;;;;;;6.45;3.50;;;;;;;26.56;49.75;93207.22;5131592;27;20092;-77
2022/07/21 18:47:12;;;;;;;8.07;3.15;;;;;;;26.47;49.68;93206.47;5131234;27;20092;-76
2022/07/21 18:49:38;;;;;;;6.15;3.03;;;;;;;26.35;50.24;93201.78;5131600;27;20035;-77
2022/07/21 18:52:05;;;;;;;9.48;3.25;;;;;;;26.28;49.92;93208.28;5130917;27;20444;-76
2022/07/21 18:54:32;;;;;;;5.45;3.13;;;;;;;26.18;50.90;93211.19;5131411;27;20047;-76
2022/07/21 18:56:59;;;;;;;7.28;3.33;;;;;;;26.08;51.25;93214.13;5131501;27;20055;-77
2022/07/21 18:59:27;;;;;;;9.77;3.65;;;;;;;25.98;51.98;93212.56;5130883;27;20567;-76
2022/07/21 19:01:54;;;;;;;5.15;2.67;;;;;;;25.88;52.47;93218.91;5131386;27;20768;-76
2022/07/21 19:04:21;;;;;;;10.50;2.70;;;;;;;25.73;52.51;93223.50;5131098;27;20559;-77
2022/07/21 19:06:48;;;;;;;6.88;3.03;;;;;;;25.61;53.21;93224.06;5130694;27;20096;-77
2022/07/21 19:09:15;;;;;;;8.27;3.28;;;;;;;25.44;54.13;93230.00;5129986;27;20043;-77
2022/07/21 19:11:42;;;;;;;8.13;3.00;;;;;;;25.26;54.79;93226.50;5123902;27;20491;-77
2022/07/21 19:14:09;;;;;;;6.75;2.75;;;;;;;25.14;54.74;93223.66;5125708;27;20048;-77
2022/07/21 19:16:37;;;;;;;8.43;3.10;;;;;;;24.95;55.70;93216.78;5114300;27;20153;-77
2022/07/21 19:19:03;;;;;;;6.60;3.10;;;;;;;24.83;56.32;93214.69;5129309;27;20818;-76
2022/07/21 19:21:30;;;;;;;9.30;2.80;;;;;;;24.80;56.70;93231.78;5130795;27;20038;-77
2022/07/21 19:23:57;;;;;;;5.45;2.60;;;;;;;24.69;56.83;93230.47;5130709;27;20111;-76
2022/07/21 19:26:24;;;;;;;10.63;3.78;;;;;;;24.50;57.52;93234.03;5130306;27;20111;-77
2022/07/21 19:28:54;;;;;;;7.18;3.00;;;;;;;24.36;58.22;93231.47;5130670;27;20043;-76
2022/07/21 19:31:21;;;;;;;7.35;3.05;;;;;;;24.33;58.50;93228.63;5130262;27;20065;-76
2022/07/21 19:33:50;;;;;;;6.63;3.00;;;;;;;24.21;59.05;93216.78;5130857;27;20047;-76
2022/07/21 19:36:17;;;;;;;7.75;3.28;;;;;;;24.14;60.43;93232.97;5130491;27;20043;-76
2022/07/21 19:38:44;;;;;;;6.18;3.45;;;;;;;24.06;59.80;93223.13;5115795;27;20518;-76
2022/07/21 19:41:11;;;;;;;7.63;3.00;;;;;;;24.13;59.92;93226.16;5130301;27;20039;-76
2022/07/21 19:43:37;;;;;;;10.55;3.58;;;;;;;24.03;61.17;93236.84;5130194;27;20039;-76
2022/07/21 19:46:04;;;;;;;5.03;3.08;;;;;;;23.51;65.00;93239.66;5129993;27;20467;-76
2022/07/21 19:48:31;;;;;;;9.85;3.97;;;;;;;23.42;63.57;93236.94;5130077;27;20043;-76
2022/07/21 19:50:59;;;;;;;9.75;3.72;;;;;;;23.46;64.51;93236.06;5129978;27;20049;-76
2022/07/21 19:53:26;;;;;;;7.65;3.45;;;;;;;23.40;65.30;93233.81;5130272;27;20473;-76
2022/07/21 19:55:53;;;;;;;6.72;3.28;;;;;;;23.42;64.79;93239.56;5129952;27;20039;-76
2022/07/21 19:58:20;;;;;;;14.93;4.15;;;;;;;23.38;65.74;93241.19;5130237;27;20120;-76
2022/07/21 20:00:47;;;;;;;9.60;3.85;;;;;;;23.38;65.29;93239.34;5129737;27;20043;-76
2022/07/21 20:03:14;;;;;;;6.35;3.90;;;;;;;23.30;65.34;93237.34;5129998;27;20047;-76
2022/07/21 20:05:41;;;;;;;9.43;5.53;;;;;;;23.31;65.27;93244.97;5129986;27;20108;-76
2022/07/21 20:08:10;;;;;;;7.80;4.05;;;;;;;23.18;65.74;93235.97;5130000;27;20050;-76
2022/07/21 20:10:37;;;;;;;9.82;4.03;;;;;;;23.18;66.65;93245.66;5130684;28;20042;-75
2022/07/21 20:13:05;;;;;;;9.55;4.50;;;;;;;23.15;64.95;93243.63;5130061;28;20051;-76
2022/07/21 20:15:32;;;;;;;15.82;4.25;;;;;;;23.10;65.28;93244.50;5130097;28;20047;-76
2022/07/21 20:18:00;;;;;;;10.10;3.75;;;;;;;23.05;65.50;93237.50;5129585;28;20093;-76
2022/07/21 20:20:27;;;;;;;10.18;5.45;;;;;;;23.03;66.26;93242.25;5129656;28;20510;-76
2022/07/21 20:22:54;;;;;;;7.45;4.38;;;;;;;22.93;67.20;93250.28;5130066;28;20043;-76
2022/07/21 20:25:22;;;;;;;10.52;4.22;;;;;;;22.79;66.85;93235.31;5130241;28;20051;-77
2022/07/21 20:27:49;;;;;;;11.80;3.78;;;;;;;22.88;66.04;93248.53;5129689;28;20047;-76
2022/07/21 20:30:18;;;;;;;5.43;3.70;;;;;;;22.86;66.65;93249.88;5129941;28;20043;-76
2022/07/21 20:32:47;;;;;;;6.43;4.10;;;;;;;22.76;66.51;93254.19;5118658;28;20047;-76
2022/07/21 20:35:14;;;;;;;5.70;3.30;;;;;;;22.72;66.23;93250.56;5121732;28;20521;-76
2022/07/21 20:37:41;;;;;;;5.97;3.13;;;;;;;22.59;67.06;93257.31;5120112;27;20040;-75
2022/07/21 20:40:09;;;;;;;5.57;3.25;;;;;;;22.49;67.52;93250.34;5118326;28;20051;-75
2022/07/21 20:42:37;;;;;;;6.20;3.35;;;;;;;22.47;68.52;93252.47;5119371;28;20047;-76
2022/07/21 20:45:06;;;;;;;6.20;3.03;;;;;;;22.37;68.23;93253.41;5121171;28;20096;-76